sensor_id;sensor_type;location;lat;lon;timestamp;P1;durP1;ratioP1;P2;durP2;ratioP2
1410;SDS011;700;51.906;8.404;2023-05-31T00:02:18;7.47;;;5.50;;
1410;SDS011;700;51.906;8.404;2023-05-31T00:07:21;11.20;;;6.20;;
1410;SDS011;700;51.906;8.404;2023-05-31T00:12:21;7.00;;;6.30;;
1410;SDS011;700;51.906;8.404;2023-05-31T00:17:22;8.63;;;6.10;;
1410;SDS011;700;51.906;8.404;2023-05-31T00:22:22;8.63;;;7.10;;
1410;SDS011;700;51.906;8.404;2023-05-31T00:27:25;11.87;;;5.83;;
1410;SDS011;700;51.906;8.404;2023-05-31T00:32:26;9.37;;;7.00;;
1410;SDS011;700;51.906;8.404;2023-05-31T00:37:27;10.97;;;6.13;;
1410;SDS011;700;51.906;8.404;2023-05-31T00:42:27;10.40;;;7.27;;
1410;SDS011;700;51.906;8.404;2023-05-31T00:47:28;8.73;;;6.03;;
1410;SDS011;700;51.906;8.404;2023-05-31T00:52:29;12.10;;;7.33;;
1410;SDS011;700;51.906;8.404;2023-05-31T00:57:33;10.93;;;7.77;;
1410;SDS011;700;51.906;8.404;2023-05-31T01:02:34;10.90;;;7.03;;
1410;SDS011;700;51.906;8.404;2023-05-31T01:07:40;9.00;;;7.10;;
1410;SDS011;700;51.906;8.404;2023-05-31T01:28:14;11.10;;;7.70;;
1410;SDS011;700;51.906;8.404;2023-05-31T01:33:18;10.80;;;8.47;;
1410;SDS011;700;51.906;8.404;2023-05-31T01:38:22;10.43;;;7.40;;
1410;SDS011;700;51.906;8.404;2023-05-31T01:43:25;13.07;;;8.30;;
1410;SDS011;700;51.906;8.404;2023-05-31T01:48:26;10.17;;;8.50;;
1410;SDS011;700;51.906;8.404;2023-05-31T01:53:28;11.77;;;8.20;;
1410;SDS011;700;51.906;8.404;2023-05-31T01:58:31;10.40;;;8.33;;
1410;SDS011;700;51.906;8.404;2023-05-31T02:03:37;11.73;;;8.50;;
1410;SDS011;700;51.906;8.404;2023-05-31T02:08:39;14.00;;;8.50;;
1410;SDS011;700;51.906;8.404;2023-05-31T02:13:40;12.93;;;9.10;;
1410;SDS011;700;51.906;8.404;2023-05-31T02:18:46;14.97;;;8.77;;
1410;SDS011;700;51.906;8.404;2023-05-31T02:23:56;15.60;;;10.30;;
1410;SDS011;700;51.906;8.404;2023-05-31T02:28:59;12.03;;;8.27;;
1410;SDS011;700;51.906;8.404;2023-05-31T02:34:02;9.73;;;7.77;;
1410;SDS011;700;51.906;8.404;2023-05-31T02:39:03;10.07;;;8.57;;
1410;SDS011;700;51.906;8.404;2023-05-31T02:44:03;13.03;;;7.93;;
1410;SDS011;700;51.906;8.404;2023-05-31T02:49:04;12.57;;;7.93;;
1410;SDS011;700;51.906;8.404;2023-05-31T02:54:07;18.57;;;9.90;;
1410;SDS011;700;51.906;8.404;2023-05-31T02:59:10;11.00;;;8.67;;
1410;SDS011;700;51.906;8.404;2023-05-31T03:04:11;10.50;;;8.30;;
1410;SDS011;700;51.906;8.404;2023-05-31T03:09:14;11.53;;;8.80;;
1410;SDS011;700;51.906;8.404;2023-05-31T03:14:16;14.63;;;8.60;;
1410;SDS011;700;51.906;8.404;2023-05-31T03:19:17;12.27;;;8.70;;
1410;SDS011;700;51.906;8.404;2023-05-31T03:24:21;14.07;;;8.90;;
1410;SDS011;700;51.906;8.404;2023-05-31T03:29:22;14.57;;;10.57;;
1410;SDS011;700;51.906;8.404;2023-05-31T03:34:25;12.20;;;8.60;;
1410;SDS011;700;51.906;8.404;2023-05-31T03:39:26;12.60;;;9.33;;
1410;SDS011;700;51.906;8.404;2023-05-31T03:44:26;11.47;;;8.10;;
1410;SDS011;700;51.906;8.404;2023-05-31T03:49:27;10.50;;;8.80;;
1410;SDS011;700;51.906;8.404;2023-05-31T03:54:29;11.67;;;9.03;;
1410;SDS011;700;51.906;8.404;2023-05-31T03:59:29;12.30;;;8.70;;
1410;SDS011;700;51.906;8.404;2023-05-31T04:04:34;15.00;;;8.67;;
1410;SDS011;700;51.906;8.404;2023-05-31T04:09:34;12.43;;;8.90;;
1410;SDS011;700;51.906;8.404;2023-05-31T04:14:37;14.87;;;8.47;;
1410;SDS011;700;51.906;8.404;2023-05-31T04:19:38;10.47;;;8.67;;
1410;SDS011;700;51.906;8.404;2023-05-31T04:24:43;12.90;;;8.90;;
1410;SDS011;700;51.906;8.404;2023-05-31T04:29:48;19.87;;;9.20;;
1410;SDS011;700;51.906;8.404;2023-05-31T04:34:50;14.07;;;9.50;;
1410;SDS011;700;51.906;8.404;2023-05-31T04:39:58;12.03;;;8.83;;
1410;SDS011;700;51.906;8.404;2023-05-31T04:44:59;11.07;;;7.90;;
1410;SDS011;700;51.906;8.404;2023-05-31T04:50:03;11.43;;;9.00;;
1410;SDS011;700;51.906;8.404;2023-05-31T04:55:04;12.40;;;8.50;;
1410;SDS011;700;51.906;8.404;2023-05-31T05:00:06;11.83;;;8.50;;
1410;SDS011;700;51.906;8.404;2023-05-31T05:05:12;16.10;;;9.13;;
1410;SDS011;700;51.906;8.404;2023-05-31T05:10:16;9.50;;;7.93;;
1410;SDS011;700;51.906;8.404;2023-05-31T05:15:19;13.77;;;9.53;;
1410;SDS011;700;51.906;8.404;2023-05-31T05:20:19;10.73;;;6.83;;
1410;SDS011;700;51.906;8.404;2023-05-31T05:25:23;14.07;;;8.20;;
1410;SDS011;700;51.906;8.404;2023-05-31T05:30:26;13.77;;;8.70;;
1410;SDS011;700;51.906;8.404;2023-05-31T05:35:27;12.03;;;7.30;;
1410;SDS011;700;51.906;8.404;2023-05-31T05:40:30;11.43;;;7.20;;
1410;SDS011;700;51.906;8.404;2023-05-31T05:45:30;11.90;;;7.40;;
1410;SDS011;700;51.906;8.404;2023-05-31T05:50:33;10.73;;;7.90;;
1410;SDS011;700;51.906;8.404;2023-05-31T05:55:37;11.20;;;7.27;;
1410;SDS011;700;51.906;8.404;2023-05-31T06:00:38;11.73;;;6.60;;
1410;SDS011;700;51.906;8.404;2023-05-31T06:05:43;10.93;;;7.50;;
1410;SDS011;700;51.906;8.404;2023-05-31T06:10:44;15.70;;;6.03;;
1410;SDS011;700;51.906;8.404;2023-05-31T06:15:49;10.60;;;7.00;;
1410;SDS011;700;51.906;8.404;2023-05-31T06:20:50;11.23;;;7.90;;
1410;SDS011;700;51.906;8.404;2023-05-31T06:25:51;10.10;;;6.50;;
1410;SDS011;700;51.906;8.404;2023-05-31T06:30:51;11.13;;;6.70;;
1410;SDS011;700;51.906;8.404;2023-05-31T06:35:52;8.00;;;6.13;;
1410;SDS011;700;51.906;8.404;2023-05-31T06:40:53;14.10;;;6.43;;
1410;SDS011;700;51.906;8.404;2023-05-31T06:45:53;8.97;;;5.87;;
1410;SDS011;700;51.906;8.404;2023-05-31T06:50:54;10.63;;;6.90;;
1410;SDS011;700;51.906;8.404;2023-05-31T06:55:55;8.50;;;5.83;;
1410;SDS011;700;51.906;8.404;2023-05-31T07:00:58;9.80;;;4.53;;
1410;SDS011;700;51.906;8.404;2023-05-31T07:06:01;6.77;;;4.57;;
1410;SDS011;700;51.906;8.404;2023-05-31T07:11:06;5.80;;;4.00;;
1410;SDS011;700;51.906;8.404;2023-05-31T07:16:07;5.50;;;3.63;;
1410;SDS011;700;51.906;8.404;2023-05-31T07:21:10;7.53;;;4.60;;
1410;SDS011;700;51.906;8.404;2023-05-31T07:26:10;9.33;;;4.10;;
1410;SDS011;700;51.906;8.404;2023-05-31T07:31:12;8.07;;;4.00;;
1410;SDS011;700;51.906;8.404;2023-05-31T07:36:15;7.40;;;3.27;;
1410;SDS011;700;51.906;8.404;2023-05-31T07:41:16;6.67;;;3.57;;
1410;SDS011;700;51.906;8.404;2023-05-31T07:46:16;5.67;;;3.57;;
1410;SDS011;700;51.906;8.404;2023-05-31T07:51:17;8.57;;;4.00;;
1410;SDS011;700;51.906;8.404;2023-05-31T07:56:17;6.17;;;3.30;;
1410;SDS011;700;51.906;8.404;2023-05-31T08:01:21;8.27;;;3.37;;
1410;SDS011;700;51.906;8.404;2023-05-31T08:06:22;4.97;;;3.30;;
1410;SDS011;700;51.906;8.404;2023-05-31T08:11:24;8.13;;;3.43;;
1410;SDS011;700;51.906;8.404;2023-05-31T08:16:25;7.70;;;2.70;;
1410;SDS011;700;51.906;8.404;2023-05-31T08:21:29;7.17;;;4.50;;
1410;SDS011;700;51.906;8.404;2023-05-31T08:26:29;7.67;;;3.03;;
1410;SDS011;700;51.906;8.404;2023-05-31T08:31:30;7.80;;;3.10;;
1410;SDS011;700;51.906;8.404;2023-05-31T08:36:33;7.47;;;3.40;;
1410;SDS011;700;51.906;8.404;2023-05-31T08:41:36;6.60;;;2.93;;
1410;SDS011;700;51.906;8.404;2023-05-31T08:46:44;6.93;;;2.90;;
1410;SDS011;700;51.906;8.404;2023-05-31T08:51:47;7.30;;;2.67;;
1410;SDS011;700;51.906;8.404;2023-05-31T08:56:54;7.33;;;3.00;;
1410;SDS011;700;51.906;8.404;2023-05-31T09:01:55;4.83;;;2.40;;
1410;SDS011;700;51.906;8.404;2023-05-31T09:07:03;6.93;;;2.43;;
1410;SDS011;700;51.906;8.404;2023-05-31T09:12:04;5.43;;;2.60;;
1410;SDS011;700;51.906;8.404;2023-05-31T09:17:06;5.70;;;3.10;;
1410;SDS011;700;51.906;8.404;2023-05-31T09:22:06;4.53;;;2.20;;
1410;SDS011;700;51.906;8.404;2023-05-31T09:27:09;5.40;;;2.13;;
1410;SDS011;700;51.906;8.404;2023-05-31T09:32:12;4.37;;;2.50;;
1410;SDS011;700;51.906;8.404;2023-05-31T09:37:24;5.97;;;2.50;;
1410;SDS011;700;51.906;8.404;2023-05-31T09:42:27;4.60;;;1.90;;
1410;SDS011;700;51.906;8.404;2023-05-31T09:47:31;4.30;;;2.10;;
1410;SDS011;700;51.906;8.404;2023-05-31T09:52:32;5.20;;;2.40;;
1410;SDS011;700;51.906;8.404;2023-05-31T09:57:38;6.53;;;2.43;;
1410;SDS011;700;51.906;8.404;2023-05-31T10:02:44;4.40;;;2.13;;
1410;SDS011;700;51.906;8.404;2023-05-31T10:07:49;4.90;;;2.20;;
1410;SDS011;700;51.906;8.404;2023-05-31T10:12:51;5.23;;;2.17;;
1410;SDS011;700;51.906;8.404;2023-05-31T10:18:07;6.23;;;2.30;;
1410;SDS011;700;51.906;8.404;2023-05-31T10:23:20;5.07;;;2.20;;
1410;SDS011;700;51.906;8.404;2023-05-31T10:28:28;4.50;;;2.37;;
1410;SDS011;700;51.906;8.404;2023-05-31T10:33:35;5.83;;;2.43;;
1410;SDS011;700;51.906;8.404;2023-05-31T10:44:04;5.07;;;2.40;;
1410;SDS011;700;51.906;8.404;2023-05-31T10:49:10;5.70;;;3.00;;
1410;SDS011;700;51.906;8.404;2023-05-31T10:54:17;4.07;;;2.23;;
1410;SDS011;700;51.906;8.404;2023-05-31T10:59:27;3.53;;;2.40;;
1410;SDS011;700;51.906;8.404;2023-05-31T11:04:28;3.80;;;2.33;;
1410;SDS011;700;51.906;8.404;2023-05-31T11:09:29;3.83;;;1.80;;
1410;SDS011;700;51.906;8.404;2023-05-31T11:14:36;5.17;;;2.60;;
1410;SDS011;700;51.906;8.404;2023-05-31T11:19:37;4.60;;;2.60;;
1410;SDS011;700;51.906;8.404;2023-05-31T11:34:54;6.13;;;3.10;;
1410;SDS011;700;51.906;8.404;2023-05-31T11:40:00;3.53;;;2.47;;
1410;SDS011;700;51.906;8.404;2023-05-31T11:45:06;5.90;;;2.83;;
1410;SDS011;700;51.906;8.404;2023-05-31T11:50:10;5.60;;;2.70;;
1410;SDS011;700;51.906;8.404;2023-05-31T11:55:16;5.27;;;2.70;;
1410;SDS011;700;51.906;8.404;2023-05-31T12:00:17;6.10;;;2.20;;
1410;SDS011;700;51.906;8.404;2023-05-31T12:05:21;4.30;;;2.13;;
1410;SDS011;700;51.906;8.404;2023-05-31T12:10:28;4.50;;;2.47;;
1410;SDS011;700;51.906;8.404;2023-05-31T12:15:33;4.30;;;2.57;;
1410;SDS011;700;51.906;8.404;2023-05-31T12:20:33;4.43;;;2.10;;
1410;SDS011;700;51.906;8.404;2023-05-31T12:25:34;4.83;;;2.70;;
1410;SDS011;700;51.906;8.404;2023-05-31T12:30:40;5.37;;;2.47;;
1410;SDS011;700;51.906;8.404;2023-05-31T12:35:43;4.87;;;2.40;;
1410;SDS011;700;51.906;8.404;2023-05-31T12:40:45;6.87;;;2.47;;
1410;SDS011;700;51.906;8.404;2023-05-31T12:45:52;7.97;;;2.50;;
1410;SDS011;700;51.906;8.404;2023-05-31T12:50:52;3.53;;;1.80;;
1410;SDS011;700;51.906;8.404;2023-05-31T12:55:57;5.87;;;2.33;;
1410;SDS011;700;51.906;8.404;2023-05-31T13:01:02;4.70;;;2.50;;
1410;SDS011;700;51.906;8.404;2023-05-31T13:06:03;5.10;;;2.70;;
1410;SDS011;700;51.906;8.404;2023-05-31T13:11:06;3.83;;;2.00;;
1410;SDS011;700;51.906;8.404;2023-05-31T13:16:06;4.90;;;2.60;;
1410;SDS011;700;51.906;8.404;2023-05-31T13:21:07;4.50;;;1.73;;
1410;SDS011;700;51.906;8.404;2023-05-31T13:26:08;6.70;;;2.67;;
1410;SDS011;700;51.906;8.404;2023-05-31T13:31:08;5.10;;;2.30;;
1410;SDS011;700;51.906;8.404;2023-05-31T13:36:11;5.33;;;2.60;;
1410;SDS011;700;51.906;8.404;2023-05-31T13:41:12;6.90;;;2.30;;
1410;SDS011;700;51.906;8.404;2023-05-31T13:46:15;5.20;;;2.90;;
1410;SDS011;700;51.906;8.404;2023-05-31T13:51:16;4.07;;;2.33;;
1410;SDS011;700;51.906;8.404;2023-05-31T13:56:17;5.40;;;2.20;;
1410;SDS011;700;51.906;8.404;2023-05-31T14:01:20;5.27;;;2.40;;
1410;SDS011;700;51.906;8.404;2023-05-31T14:06:26;4.33;;;2.33;;
1410;SDS011;700;51.906;8.404;2023-05-31T14:11:27;3.83;;;2.10;;
1410;SDS011;700;51.906;8.404;2023-05-31T14:16:31;4.63;;;2.30;;
1410;SDS011;700;51.906;8.404;2023-05-31T14:21:34;7.60;;;2.30;;
1410;SDS011;700;51.906;8.404;2023-05-31T14:26:34;4.40;;;2.20;;
1410;SDS011;700;51.906;8.404;2023-05-31T14:31:35;4.63;;;2.20;;
1410;SDS011;700;51.906;8.404;2023-05-31T14:36:39;4.50;;;2.57;;
1410;SDS011;700;51.906;8.404;2023-05-31T14:41:42;5.80;;;2.27;;
1410;SDS011;700;51.906;8.404;2023-05-31T14:46:42;3.20;;;1.60;;
1410;SDS011;700;51.906;8.404;2023-05-31T14:51:43;4.17;;;1.70;;
1410;SDS011;700;51.906;8.404;2023-05-31T14:56:45;6.00;;;2.20;;
1410;SDS011;700;51.906;8.404;2023-05-31T15:01:46;3.97;;;1.80;;
1410;SDS011;700;51.906;8.404;2023-05-31T15:06:46;6.93;;;2.20;;
1410;SDS011;700;51.906;8.404;2023-05-31T15:11:47;6.00;;;2.10;;
1410;SDS011;700;51.906;8.404;2023-05-31T15:16:48;4.67;;;2.37;;
1410;SDS011;700;51.906;8.404;2023-05-31T15:21:49;3.30;;;1.93;;
1410;SDS011;700;51.906;8.404;2023-05-31T15:26:49;6.90;;;2.13;;
1410;SDS011;700;51.906;8.404;2023-05-31T15:31:50;4.23;;;1.90;;
1410;SDS011;700;51.906;8.404;2023-05-31T15:36:51;6.07;;;2.47;;
1410;SDS011;700;51.906;8.404;2023-05-31T15:41:55;4.50;;;2.20;;
1410;SDS011;700;51.906;8.404;2023-05-31T15:46:55;7.90;;;2.13;;
1410;SDS011;700;51.906;8.404;2023-05-31T15:51:58;4.50;;;2.40;;
1410;SDS011;700;51.906;8.404;2023-05-31T15:56:59;3.90;;;1.97;;
1410;SDS011;700;51.906;8.404;2023-05-31T16:02:01;4.20;;;2.40;;
1410;SDS011;700;51.906;8.404;2023-05-31T16:07:04;7.63;;;2.40;;
1410;SDS011;700;51.906;8.404;2023-05-31T16:12:05;6.83;;;2.70;;
1410;SDS011;700;51.906;8.404;2023-05-31T16:17:06;5.67;;;2.37;;
1410;SDS011;700;51.906;8.404;2023-05-31T16:22:07;3.50;;;1.77;;
1410;SDS011;700;51.906;8.404;2023-05-31T16:27:12;8.50;;;2.07;;
1410;SDS011;700;51.906;8.404;2023-05-31T16:32:13;7.70;;;2.87;;
1410;SDS011;700;51.906;8.404;2023-05-31T16:37:14;5.40;;;1.80;;
1410;SDS011;700;51.906;8.404;2023-05-31T16:42:14;5.37;;;2.77;;
1410;SDS011;700;51.906;8.404;2023-05-31T16:47:15;4.87;;;2.00;;
1410;SDS011;700;51.906;8.404;2023-05-31T16:52:16;4.90;;;1.90;;
1410;SDS011;700;51.906;8.404;2023-05-31T16:57:17;4.87;;;2.33;;
1410;SDS011;700;51.906;8.404;2023-05-31T17:02:17;4.53;;;1.97;;
1410;SDS011;700;51.906;8.404;2023-05-31T17:07:18;5.70;;;2.20;;
1410;SDS011;700;51.906;8.404;2023-05-31T17:12:19;3.90;;;2.00;;
1410;SDS011;700;51.906;8.404;2023-05-31T17:17:19;6.60;;;2.07;;
1410;SDS011;700;51.906;8.404;2023-05-31T17:22:20;4.13;;;2.10;;
1410;SDS011;700;51.906;8.404;2023-05-31T17:27:23;4.07;;;2.30;;
1410;SDS011;700;51.906;8.404;2023-05-31T17:32:24;6.03;;;2.37;;
1410;SDS011;700;51.906;8.404;2023-05-31T17:37:25;5.90;;;2.60;;
1410;SDS011;700;51.906;8.404;2023-05-31T17:42:28;3.83;;;2.00;;
1410;SDS011;700;51.906;8.404;2023-05-31T17:47:28;4.70;;;2.20;;
1410;SDS011;700;51.906;8.404;2023-05-31T17:52:32;3.30;;;1.77;;
1410;SDS011;700;51.906;8.404;2023-05-31T17:57:34;4.40;;;2.17;;
1410;SDS011;700;51.906;8.404;2023-05-31T18:02:38;4.47;;;2.30;;
1410;SDS011;700;51.906;8.404;2023-05-31T18:07:38;5.30;;;2.17;;
1410;SDS011;700;51.906;8.404;2023-05-31T18:12:39;5.43;;;2.33;;
1410;SDS011;700;51.906;8.404;2023-05-31T18:17:43;3.17;;;1.90;;
1410;SDS011;700;51.906;8.404;2023-05-31T18:22:43;4.53;;;2.07;;
1410;SDS011;700;51.906;8.404;2023-05-31T18:27:44;5.90;;;1.90;;
1410;SDS011;700;51.906;8.404;2023-05-31T18:32:44;6.20;;;3.97;;
1410;SDS011;700;51.906;8.404;2023-05-31T18:37:47;5.07;;;2.17;;
1410;SDS011;700;51.906;8.404;2023-05-31T18:42:50;5.17;;;2.00;;
1410;SDS011;700;51.906;8.404;2023-05-31T18:47:51;4.33;;;2.40;;
1410;SDS011;700;51.906;8.404;2023-05-31T18:52:52;5.03;;;2.50;;
1410;SDS011;700;51.906;8.404;2023-05-31T18:57:53;3.63;;;2.27;;
1410;SDS011;700;51.906;8.404;2023-05-31T19:02:53;4.90;;;2.60;;
1410;SDS011;700;51.906;8.404;2023-05-31T19:07:54;3.83;;;2.13;;
1410;SDS011;700;51.906;8.404;2023-05-31T19:12:57;9.30;;;2.80;;
1410;SDS011;700;51.906;8.404;2023-05-31T19:17:58;4.60;;;2.60;;
1410;SDS011;700;51.906;8.404;2023-05-31T19:22:58;5.63;;;2.37;;
1410;SDS011;700;51.906;8.404;2023-05-31T19:28:00;5.10;;;2.50;;
1410;SDS011;700;51.906;8.404;2023-05-31T19:33:01;4.20;;;2.23;;
1410;SDS011;700;51.906;8.404;2023-05-31T19:38:01;5.10;;;2.10;;
1410;SDS011;700;51.906;8.404;2023-05-31T19:43:02;3.63;;;2.10;;
1410;SDS011;700;51.906;8.404;2023-05-31T19:48:05;4.20;;;2.13;;
1410;SDS011;700;51.906;8.404;2023-05-31T19:53:09;7.53;;;2.13;;
1410;SDS011;700;51.906;8.404;2023-05-31T19:58:12;4.50;;;1.70;;
1410;SDS011;700;51.906;8.404;2023-05-31T20:03:15;4.40;;;1.90;;
1410;SDS011;700;51.906;8.404;2023-05-31T20:08:16;3.37;;;1.73;;
1410;SDS011;700;51.906;8.404;2023-05-31T20:13:16;4.17;;;2.00;;
1410;SDS011;700;51.906;8.404;2023-05-31T20:18:20;6.30;;;2.30;;
1410;SDS011;700;51.906;8.404;2023-05-31T20:23:23;4.63;;;2.10;;
1410;SDS011;700;51.906;8.404;2023-05-31T20:28:26;5.20;;;2.73;;
1410;SDS011;700;51.906;8.404;2023-05-31T20:33:27;6.67;;;2.50;;
1410;SDS011;700;51.906;8.404;2023-05-31T20:38:28;5.77;;;2.60;;
1410;SDS011;700;51.906;8.404;2023-05-31T20:43:28;6.40;;;2.53;;
1410;SDS011;700;51.906;8.404;2023-05-31T20:48:29;4.90;;;2.67;;
1410;SDS011;700;51.906;8.404;2023-05-31T20:53:34;5.70;;;2.27;;
1410;SDS011;700;51.906;8.404;2023-05-31T20:58:35;5.47;;;2.50;;
1410;SDS011;700;51.906;8.404;2023-05-31T21:03:36;5.10;;;2.80;;
1410;SDS011;700;51.906;8.404;2023-05-31T21:08:36;7.67;;;2.93;;
1410;SDS011;700;51.906;8.404;2023-05-31T21:13:39;5.47;;;2.60;;
1410;SDS011;700;51.906;8.404;2023-05-31T21:18:40;4.17;;;2.57;;
1410;SDS011;700;51.906;8.404;2023-05-31T21:23:43;6.20;;;2.93;;
1410;SDS011;700;51.906;8.404;2023-05-31T21:28:43;6.10;;;3.20;;
1410;SDS011;700;51.906;8.404;2023-05-31T21:33:44;6.13;;;3.23;;
1410;SDS011;700;51.906;8.404;2023-05-31T21:38:47;6.00;;;3.37;;
1410;SDS011;700;51.906;8.404;2023-05-31T21:43:51;5.23;;;2.70;;
1410;SDS011;700;51.906;8.404;2023-05-31T21:48:55;6.13;;;3.00;;
1410;SDS011;700;51.906;8.404;2023-05-31T21:53:56;6.70;;;3.10;;
1410;SDS011;700;51.906;8.404;2023-05-31T21:58:56;4.97;;;2.80;;
1410;SDS011;700;51.906;8.404;2023-05-31T22:03:59;6.13;;;2.80;;
1410;SDS011;700;51.906;8.404;2023-05-31T22:09:02;7.43;;;3.33;;
1410;SDS011;700;51.906;8.404;2023-05-31T22:14:05;4.70;;;2.60;;
1410;SDS011;700;51.906;8.404;2023-05-31T22:19:10;7.30;;;3.37;;
1410;SDS011;700;51.906;8.404;2023-05-31T22:24:11;6.57;;;4.47;;
1410;SDS011;700;51.906;8.404;2023-05-31T22:29:14;7.50;;;3.83;;
1410;SDS011;700;51.906;8.404;2023-05-31T22:34:20;10.30;;;4.07;;
1410;SDS011;700;51.906;8.404;2023-05-31T22:39:20;8.00;;;4.63;;
1410;SDS011;700;51.906;8.404;2023-05-31T22:44:21;7.30;;;4.67;;
1410;SDS011;700;51.906;8.404;2023-05-31T22:49:21;8.00;;;5.37;;
1410;SDS011;700;51.906;8.404;2023-05-31T22:54:22;12.33;;;5.53;;
1410;SDS011;700;51.906;8.404;2023-05-31T22:59:23;10.33;;;6.17;;
1410;SDS011;700;51.906;8.404;2023-05-31T23:04:25;12.37;;;7.07;;
1410;SDS011;700;51.906;8.404;2023-05-31T23:09:26;10.00;;;7.10;;
1410;SDS011;700;51.906;8.404;2023-05-31T23:14:28;10.60;;;7.13;;
1410;SDS011;700;51.906;8.404;2023-05-31T23:19:31;11.90;;;7.50;;
1410;SDS011;700;51.906;8.404;2023-05-31T23:24:33;11.53;;;7.67;;
1410;SDS011;700;51.906;8.404;2023-05-31T23:29:34;11.47;;;7.57;;
1410;SDS011;700;51.906;8.404;2023-05-31T23:34:34;11.60;;;8.23;;
1410;SDS011;700;51.906;8.404;2023-05-31T23:39:35;11.00;;;7.53;;
1410;SDS011;700;51.906;8.404;2023-05-31T23:44:38;11.20;;;8.30;;
1410;SDS011;700;51.906;8.404;2023-05-31T23:49:39;15.77;;;9.00;;
1410;SDS011;700;51.906;8.404;2023-05-31T23:54:42;13.57;;;8.20;;
1410;SDS011;700;51.906;8.404;2023-05-31T23:59:42;11.70;;;8.33;;
